createdAt,value
2023-08-27T00:00:17.550Z,67.419313
2023-08-27T00:05:23.813Z,67.554708
2023-08-27T00:10:24.051Z,67.456305
2023-08-27T00:15:23.891Z,67.686258
2023-08-27T00:20:17.654Z,67.587715
2023-08-27T00:25:17.675Z,67.814040
2023-08-27T00:30:23.795Z,67.814040
2023-08-27T00:35:23.841Z,67.715358
2023-08-27T00:40:15.612Z,67.517993
2023-08-27T00:45:15.779Z,67.517993
2023-08-27T00:50:24.070Z,67.938129
2023-08-27T00:55:23.869Z,67.938129
2023-08-27T01:00:23.871Z,67.517993
2023-08-27T01:05:23.869Z,66.996448
2023-08-27T01:10:23.884Z,67.094993
2023-08-27T01:15:24.036Z,66.996448
2023-08-27T01:20:17.669Z,66.996448
2023-08-27T01:25:24.171Z,66.897902
2023-08-27T01:30:17.715Z,66.700810
2023-08-27T01:35:15.765Z,66.503717
2023-08-27T01:40:15.779Z,66.306622
2023-08-27T01:45:17.765Z,66.208075
2023-08-27T01:50:23.878Z,66.405170
2023-08-27T01:55:23.932Z,66.531149
2023-08-27T02:00:24.007Z,66.432464
2023-08-27T02:05:17.764Z,66.235091
2023-08-27T02:10:17.709Z,65.939030
2023-08-27T02:15:23.993Z,65.939030
2023-08-27T02:20:17.900Z,65.840343
2023-08-27T02:25:17.837Z,65.544278
2023-08-27T02:30:15.836Z,65.445590
2023-08-27T02:35:17.821Z,65.445590
2023-08-27T02:40:17.844Z,65.346901
2023-08-27T02:45:17.847Z,65.764038
2023-08-27T02:50:24.159Z,65.764038
2023-08-27T02:55:23.952Z,65.764038
2023-08-27T03:00:24.006Z,65.764038
2023-08-27T03:05:24.103Z,65.665213
2023-08-27T03:10:17.866Z,65.665213
2023-08-27T03:15:17.786Z,65.665213
2023-08-27T03:20:15.830Z,65.566387
2023-08-27T03:25:15.883Z,65.346901
2023-08-27T03:30:24.080Z,64.897704
2023-08-27T03:35:17.864Z,64.766123
2023-08-27T03:40:17.964Z,64.864394
2023-08-27T03:45:24.146Z,64.630656
2023-08-27T03:50:24.015Z,65.060935
2023-08-27T03:55:24.047Z,64.962665
2023-08-27T04:00:19.144Z,64.728785
2023-08-27T04:05:19.248Z,64.728785
2023-08-27T04:10:25.413Z,64.630656
2023-08-27T04:15:25.370Z,64.728785
2023-08-27T04:20:25.589Z,64.630656
2023-08-27T04:25:19.158Z,64.630656
2023-08-27T04:30:25.417Z,64.630656
2023-08-27T04:35:25.419Z,64.197264
2023-08-27T04:40:25.356Z,64.532527
2023-08-27T04:45:17.347Z,64.532527
2023-08-27T04:50:17.437Z,64.532527
2023-08-27T04:55:25.451Z,64.532527
2023-08-27T05:00:19.200Z,64.532527
2023-08-27T05:05:25.469Z,64.864394
2023-08-27T05:10:25.427Z,64.532527
2023-08-27T05:15:19.328Z,64.766123
2023-08-27T05:20:25.461Z,64.766123
2023-08-27T05:25:19.228Z,64.766123
2023-08-27T05:30:25.486Z,64.766123
2023-08-27T05:35:17.286Z,64.667851
2023-08-27T05:40:17.281Z,64.569580
2023-08-27T05:45:19.257Z,64.471307
2023-08-27T05:50:19.264Z,64.373035
2023-08-27T05:55:25.540Z,64.602466
2023-08-27T06:00:19.140Z,64.504053
2023-08-27T06:05:19.341Z,64.729822
2023-08-27T06:10:25.532Z,64.631269
2023-08-27T06:15:25.591Z,64.532717
2023-08-27T06:20:19.242Z,64.434163
2023-08-27T06:25:25.675Z,64.754761
2023-08-27T06:30:17.362Z,64.434163
2023-08-27T06:35:19.299Z,64.853452
2023-08-27T06:40:19.495Z,64.754761
2023-08-27T06:45:19.357Z,64.557379
2023-08-27T06:50:25.614Z,64.557379
2023-08-27T06:55:25.598Z,64.458688
2023-08-27T07:00:25.687Z,64.458688
2023-08-27T07:05:19.381Z,64.359996
2023-08-27T07:10:25.563Z,64.039947
2023-08-27T07:15:19.345Z,64.359996
2023-08-27T07:20:17.413Z,64.359996
2023-08-27T07:25:19.486Z,63.941392
2023-08-27T07:30:19.508Z,63.941392
2023-08-27T07:35:19.411Z,63.842837
2023-08-27T07:40:25.685Z,64.261304
2023-08-27T07:45:25.670Z,63.842837
2023-08-27T07:50:19.499Z,63.744282
2023-08-27T07:55:25.700Z,63.744282
2023-08-27T08:00:25.690Z,63.744282
2023-08-27T08:05:25.654Z,63.744282
2023-08-27T08:10:25.596Z,63.323067
2023-08-27T08:15:17.522Z,63.645726
2023-08-27T08:20:17.527Z,63.224649
2023-08-27T08:25:19.588Z,63.547170
2023-08-27T08:30:25.716Z,63.448614
2023-08-27T08:35:25.637Z,63.448614
2023-08-27T08:40:19.501Z,63.866533
2023-08-27T08:45:19.454Z,63.350057
2023-08-27T08:50:25.708Z,63.350057
2023-08-27T08:55:15.661Z,63.350057
2023-08-27T09:00:23.908Z,63.570452
2023-08-27T09:05:23.716Z,63.570452
2023-08-27T09:10:17.393Z,63.570452
2023-08-27T09:15:23.862Z,63.373063
2023-08-27T09:20:23.752Z,63.274369
2023-08-27T09:25:17.537Z,63.175674
2023-08-27T09:30:23.760Z,63.076978
2023-08-27T09:35:17.533Z,63.076978
2023-08-27T09:40:17.677Z,62.978282
2023-08-27T09:45:15.558Z,63.076978
2023-08-27T09:50:15.637Z,63.076978
2023-08-27T09:55:17.599Z,62.978282
2023-08-27T10:00:17.595Z,63.194501
2023-08-27T10:05:23.782Z,63.194501
2023-08-27T10:10:23.763Z,63.095669
2023-08-27T10:15:17.570Z,63.194501
2023-08-27T10:20:17.609Z,63.194501
2023-08-27T10:25:17.550Z,62.978282
2023-08-27T10:30:25.952Z,62.978282
2023-08-27T10:35:17.661Z,63.076978
2023-08-27T10:40:15.720Z,62.758711
2023-08-27T10:45:15.675Z,62.758711
2023-08-27T10:50:24.048Z,62.879587
2023-08-27T10:55:23.842Z,62.898005
2023-08-27T11:00:23.858Z,63.110533
2023-08-27T11:05:23.865Z,63.220744
2023-08-27T11:10:17.692Z,63.220744
2023-08-27T11:15:23.945Z,63.121644
2023-08-27T11:20:23.925Z,63.426769
2023-08-27T11:25:23.933Z,63.327536
2023-08-27T11:30:23.889Z,62.824341
2023-08-27T11:35:15.821Z,62.725240
2023-08-27T11:40:24.199Z,62.626139
2023-08-27T11:45:23.924Z,62.527037
2023-08-27T11:50:17.757Z,62.831372
2023-08-27T11:55:17.726Z,62.831372
2023-08-27T12:00:17.761Z,62.831372
2023-08-27T12:05:17.716Z,62.930605
2023-08-27T12:10:24.096Z,62.930605
2023-08-27T12:15:23.929Z,63.029838
2023-08-27T12:20:23.939Z,62.930605
2023-08-27T12:25:15.928Z,63.029838
2023-08-27T12:30:15.795Z,63.129071
2023-08-27T12:35:17.734Z,63.327536
2023-08-27T12:40:23.967Z,63.526001
2023-08-27T12:45:23.986Z,63.418944
2023-08-27T12:50:17.978Z,63.110533
2023-08-27T12:55:23.932Z,63.407433
2023-08-27T13:00:17.836Z,63.605365
2023-08-27T13:05:17.754Z,63.293332
2023-08-27T13:10:24.235Z,63.392164
2023-08-27T13:15:24.003Z,63.589825
2023-08-27T13:20:15.904Z,63.688656
2023-08-27T13:25:15.933Z,63.787486
2023-08-27T13:30:17.864Z,63.471758
2023-08-27T13:35:24.128Z,63.373063
2023-08-27T13:40:24.085Z,63.152943
2023-08-27T13:45:24.184Z,63.152943
2023-08-27T13:50:17.931Z,63.251500
2023-08-27T13:55:24.152Z,63.471758
2023-08-27T14:00:24.131Z,63.152943
2023-08-27T14:05:24.085Z,63.669146
2023-08-27T14:10:15.902Z,63.027813
2023-08-27T14:15:15.888Z,63.448614
2023-08-27T14:20:18.005Z,63.323067
2023-08-27T14:25:24.144Z,63.095458
2023-08-27T14:30:24.166Z,63.618318
2023-08-27T14:35:17.949Z,63.815150
2023-08-27T14:40:24.140Z,64.208811
2023-08-27T14:45:18.088Z,63.453080
2023-08-27T14:50:55.399Z,63.685117
2023-08-27T14:55:17.947Z,63.881667
2023-08-27T15:00:17.943Z,63.551213
2023-08-27T15:05:16.004Z,63.649346
2023-08-27T15:10:16.079Z,63.315368
2023-08-27T15:15:24.220Z,63.217378
2023-08-27T15:20:18.025Z,63.315368
2023-08-27T15:25:24.225Z,63.943743
2023-08-27T15:30:18.078Z,63.707326
2023-08-27T15:35:18.033Z,63.565002
2023-08-27T15:40:24.282Z,63.565002
2023-08-27T15:45:24.166Z,64.001291
2023-08-27T15:50:18.026Z,63.956373
2023-08-27T15:55:18.031Z,64.004725
2023-08-27T16:00:16.126Z,64.590881
2023-08-27T16:05:24.288Z,64.379053
2023-08-27T16:10:24.296Z,64.314942
2023-08-27T16:15:18.024Z,64.314942
2023-08-27T16:20:24.462Z,64.703897
2023-08-27T16:25:18.061Z,65.022665
2023-08-27T16:30:18.117Z,65.352948
2023-08-27T16:35:24.314Z,64.995608
2023-08-27T16:40:24.314Z,64.731419
2023-08-27T16:45:24.263Z,65.313906
2023-08-27T16:50:16.078Z,65.625990
2023-08-27T16:55:16.250Z,64.878539
2023-08-27T17:00:18.339Z,65.447916
2023-08-27T17:05:18.314Z,64.878539
2023-08-27T17:10:18.131Z,65.447916
2023-08-27T17:15:24.356Z,65.172772
2023-08-27T17:20:24.327Z,65.655652
2023-08-27T17:25:18.240Z,65.461602
2023-08-27T17:30:24.445Z,65.454516
2023-08-27T17:35:24.498Z,65.262296
2023-08-27T17:40:24.615Z,66.039242
2023-08-27T17:45:16.180Z,66.716433
2023-08-27T17:50:26.367Z,65.825126
2023-08-27T17:55:24.395Z,66.031155
2023-08-27T18:00:18.217Z,65.550624
2023-08-27T18:05:18.171Z,65.462774
2023-08-27T18:10:18.121Z,65.458167
2023-08-27T18:15:24.528Z,65.651371
2023-08-27T18:20:18.133Z,66.802535
2023-08-27T18:25:24.435Z,66.520754
2023-08-27T18:30:18.214Z,65.848528
2023-08-27T18:35:16.309Z,65.458167
2023-08-27T18:40:16.289Z,65.834964
2023-08-27T18:45:18.356Z,66.134369
2023-08-27T18:50:24.489Z,65.655652
2023-08-27T18:55:18.201Z,66.327563
2023-08-27T19:00:24.553Z,65.654152
2023-08-27T19:05:24.489Z,65.941172
2023-08-27T19:10:26.901Z,66.134369
2023-08-27T19:15:24.578Z,65.076494
2023-08-27T19:20:18.280Z,65.077007
2023-08-27T19:25:18.306Z,65.366333
2023-08-27T19:30:16.317Z,65.752091
2023-08-27T19:35:16.420Z,65.462774
2023-08-27T19:40:24.476Z,65.077007
2023-08-27T19:45:24.516Z,65.168356
2023-08-27T19:50:18.411Z,64.878539
2023-08-27T19:55:18.326Z,64.685324
2023-08-27T20:00:18.458Z,65.238303
2023-08-27T20:05:24.603Z,65.742491
2023-08-27T20:10:24.716Z,65.511375
2023-08-27T20:15:18.342Z,65.521783
2023-08-27T20:20:24.541Z,65.317549
2023-08-27T20:25:16.436Z,64.962665
2023-08-27T20:30:18.343Z,64.897704
2023-08-27T20:35:24.687Z,65.025478
2023-08-27T20:40:24.550Z,65.050832
2023-08-27T20:45:18.381Z,65.269909
2023-08-27T20:50:18.375Z,65.584635
2023-08-27T20:55:18.593Z,65.584635
2023-08-27T21:00:18.380Z,65.683596
2023-08-27T21:05:24.626Z,65.171083
2023-08-27T21:10:24.683Z,65.269909
2023-08-27T21:15:16.481Z,65.050832
2023-08-27T21:20:16.662Z,64.729822
2023-08-27T21:25:24.853Z,64.828374
2023-08-27T21:30:24.672Z,64.828374
2023-08-27T21:35:24.622Z,64.828374
2023-08-27T21:40:24.624Z,64.926926
2023-08-27T21:45:24.733Z,65.124030
2023-08-27T21:50:18.472Z,65.222581
2023-08-27T21:55:18.511Z,64.471307
2023-08-27T22:00:18.494Z,64.373035
2023-08-27T22:05:24.731Z,63.707326
2023-08-27T22:10:16.525Z,63.943743
2023-08-27T22:15:16.598Z,63.845612
2023-08-27T22:20:24.808Z,63.413359
2023-08-27T22:25:24.748Z,63.315368
2023-08-27T22:30:24.708Z,63.551213
2023-08-27T22:35:24.755Z,63.119387
2023-08-27T22:40:18.523Z,63.453080
2023-08-27T22:45:24.787Z,63.354946
2023-08-27T22:50:18.505Z,63.256811
2023-08-27T22:55:24.837Z,63.292013
2023-08-27T23:00:16.647Z,63.095458
2023-08-27T23:05:16.628Z,63.224649
2023-08-27T23:10:18.582Z,63.350057
2023-08-27T23:15:24.811Z,62.955827
2023-08-27T23:20:18.495Z,63.076978
2023-08-27T23:25:18.566Z,63.194501
2023-08-27T23:30:18.712Z,63.407433
2023-08-27T23:35:18.496Z,63.308467
2023-08-27T23:40:18.623Z,63.011566
2023-08-27T23:45:18.561Z,63.220744
2023-08-27T23:50:24.850Z,63.220744
2023-08-27T23:55:16.740Z,62.923442
